createdAt,value
2022-10-08T00:00:23.653Z,10.27
2022-10-08T00:01:26.094Z,9.93
2022-10-08T00:02:29.767Z,10.18
2022-10-08T00:03:34.686Z,9.57
2022-10-08T00:04:37.031Z,9.98
2022-10-08T00:05:39.403Z,10.35
2022-10-08T00:06:41.729Z,9.98
2022-10-08T00:07:45.457Z,10.18
2022-10-08T00:08:54.185Z,10.65
2022-10-08T00:09:56.356Z,11.02
2022-10-08T00:11:01.268Z,10.48
2022-10-08T00:12:03.808Z,10.52
2022-10-08T00:13:06.018Z,10.50
2022-10-08T00:14:09.540Z,10.90
2022-10-08T00:15:11.913Z,10.60
2022-10-08T00:16:15.231Z,10.75
2022-10-08T00:17:17.473Z,10.43
2022-10-08T00:18:20.763Z,11.18
2022-10-08T00:19:23.075Z,11.32
2022-10-08T00:20:25.434Z,11.13
2022-10-08T00:21:33.287Z,11.00
2022-10-08T00:22:35.487Z,11.50
2022-10-08T00:23:37.646Z,11.13
2022-10-08T00:24:40.185Z,11.23
2022-10-08T00:25:44.218Z,10.68
2022-10-08T00:26:46.605Z,10.75
2022-10-08T00:27:48.800Z,10.90
2022-10-08T00:28:53.340Z,11.13
2022-10-08T00:29:55.496Z,10.07
2022-10-08T00:30:58.146Z,11.80
2022-10-08T00:32:00.464Z,11.20
2022-10-08T00:33:02.811Z,11.65
2022-10-08T00:34:08.642Z,11.05
2022-10-08T00:35:10.828Z,10.85
2022-10-08T00:36:13.463Z,11.25
2022-10-08T00:37:15.602Z,11.10
2022-10-08T00:38:17.957Z,11.50
2022-10-08T00:39:22.483Z,11.48
2022-10-08T00:40:25.146Z,12.13
2022-10-08T00:41:29.566Z,12.38
2022-10-08T00:42:31.720Z,11.55
2022-10-08T00:44:03.854Z,11.23
2022-10-08T00:45:11.805Z,11.02
2022-10-08T00:46:25.322Z,11.10
2022-10-08T00:47:33.458Z,11.02
2022-10-08T00:48:35.981Z,11.30
2022-10-08T00:49:38.515Z,11.75
2022-10-08T00:50:41.119Z,11.00
2022-10-08T00:51:49.801Z,12.48
2022-10-08T00:52:57.002Z,11.45
2022-10-08T00:54:01.721Z,11.05
2022-10-08T00:55:06.921Z,11.95
2022-10-08T00:56:09.167Z,11.55
2022-10-08T00:57:12.157Z,11.48
2022-10-08T00:58:21.492Z,10.95
2022-10-08T00:59:24.153Z,10.57
2022-10-08T01:00:26.648Z,12.25
2022-10-08T01:01:29.892Z,11.88
2022-10-08T01:02:32.147Z,11.85
2022-10-08T01:03:34.367Z,11.65
2022-10-08T01:04:38.572Z,11.48
2022-10-08T01:05:56.165Z,11.90
2022-10-08T01:07:17.461Z,12.07
2022-10-08T01:08:29.781Z,11.43
2022-10-08T01:09:57.972Z,11.63
2022-10-08T01:11:09.510Z,11.18
2022-10-08T01:12:37.900Z,10.85
2022-10-08T01:13:56.565Z,11.15
2022-10-08T01:15:06.652Z,10.60
2022-10-08T01:16:34.973Z,10.88
2022-10-08T01:17:49.992Z,11.50
2022-10-08T01:19:29.731Z,11.57
2022-10-08T01:20:50.352Z,10.55
2022-10-08T01:22:11.434Z,11.30
2022-10-08T01:23:16.575Z,10.82
2022-10-08T01:24:50.355Z,11.18
2022-10-08T01:26:11.207Z,10.18
2022-10-08T01:27:39.522Z,11.75
2022-10-08T01:28:52.579Z,11.30
2022-10-08T01:29:56.008Z,12.10
2022-10-08T01:31:08.181Z,12.10
2022-10-08T01:32:19.413Z,11.50
2022-10-08T01:33:27.917Z,11.48
2022-10-08T01:34:39.244Z,12.05
2022-10-08T01:35:48.596Z,10.82
2022-10-08T01:36:52.950Z,11.35
2022-10-08T01:37:58.324Z,12.13
2022-10-08T01:39:04.010Z,11.80
2022-10-08T01:40:13.922Z,11.60
2022-10-08T01:41:17.981Z,11.03
2022-10-08T01:42:23.414Z,11.57
2022-10-08T01:43:32.016Z,11.70
2022-10-08T01:44:57.088Z,11.32
2022-10-08T01:46:06.059Z,10.88
2022-10-08T01:47:14.356Z,11.90
2022-10-08T01:48:25.712Z,11.43
2022-10-08T01:49:34.600Z,11.65
2022-10-08T01:50:58.177Z,12.00
2022-10-08T01:52:08.624Z,11.98
2022-10-08T01:53:15.781Z,10.65
2022-10-08T01:54:20.634Z,10.80
2022-10-08T01:55:46.092Z,11.13
2022-10-08T01:56:50.358Z,10.48
2022-10-08T01:57:57.642Z,11.68
2022-10-08T01:59:02.988Z,11.75
2022-10-08T02:00:12.399Z,11.30
2022-10-08T02:01:27.781Z,11.07
2022-10-08T02:02:30.322Z,12.38
2022-10-08T02:03:32.582Z,11.85
2022-10-08T02:04:37.634Z,11.85
2022-10-08T02:05:46.097Z,11.73
2022-10-08T02:06:55.345Z,11.52
2022-10-08T02:07:58.362Z,11.07
2022-10-08T02:09:00.637Z,11.25
2022-10-08T02:10:05.262Z,11.50
2022-10-08T02:11:07.573Z,11.60
2022-10-08T02:12:11.426Z,11.38
2022-10-08T02:13:13.908Z,11.35
2022-10-08T02:14:16.688Z,11.55
2022-10-08T02:15:50.865Z,11.60
2022-10-08T02:17:09.016Z,11.45
2022-10-08T02:18:18.199Z,11.20
2022-10-08T02:19:47.105Z,11.07
2022-10-08T02:20:58.919Z,11.70
2022-10-08T02:22:04.569Z,11.15
2022-10-08T02:23:24.225Z,10.93
2022-10-08T02:24:43.582Z,10.73
2022-10-08T02:25:51.749Z,11.18
2022-10-08T02:26:58.007Z,11.00
2022-10-08T02:28:15.960Z,10.65
2022-10-08T02:29:45.491Z,11.35
2022-10-08T02:30:53.993Z,12.07
2022-10-08T02:32:03.223Z,11.10
2022-10-08T02:33:14.072Z,11.90
2022-10-08T02:35:32.175Z,11.43
2022-10-08T02:36:42.061Z,10.70
2022-10-08T02:37:51.298Z,10.63
2022-10-08T02:38:57.655Z,10.60
2022-10-08T02:40:08.547Z,11.18
2022-10-08T02:41:12.653Z,10.90
2022-10-08T02:42:18.729Z,11.52
2022-10-08T02:43:26.645Z,11.18
2022-10-08T02:44:41.659Z,10.82
2022-10-08T02:45:51.028Z,11.30
2022-10-08T02:46:56.582Z,11.48
2022-10-08T02:48:08.506Z,10.65
2022-10-08T02:49:20.488Z,10.73
2022-10-08T02:50:27.108Z,10.55
2022-10-08T02:51:32.110Z,10.05
2022-10-08T02:52:38.932Z,10.13
2022-10-08T02:53:42.081Z,10.68
2022-10-08T02:54:46.330Z,10.38
2022-10-08T02:56:06.314Z,10.77
2022-10-08T02:57:21.487Z,10.77
2022-10-08T02:58:23.832Z,10.45
2022-10-08T02:59:26.715Z,11.25
2022-10-08T03:00:35.306Z,10.45
2022-10-08T03:01:48.832Z,10.02
2022-10-08T03:03:03.803Z,11.30
2022-10-08T03:04:13.374Z,10.23
2022-10-08T03:05:19.160Z,10.60
2022-10-08T03:06:22.144Z,10.23
2022-10-08T03:07:26.208Z,11.52
2022-10-08T03:08:30.445Z,10.57
2022-10-08T03:09:37.304Z,11.35
2022-10-08T03:10:42.029Z,10.75
2022-10-08T03:11:44.519Z,11.00
2022-10-08T03:12:47.875Z,10.77
2022-10-08T03:13:51.761Z,11.02
2022-10-08T03:14:54.246Z,10.20
2022-10-08T03:15:57.844Z,10.27
2022-10-08T03:17:00.618Z,10.90
2022-10-08T03:18:08.665Z,9.77
2022-10-08T03:19:14.176Z,10.45
2022-10-08T03:20:16.591Z,10.48
2022-10-08T03:21:19.320Z,10.10
2022-10-08T03:22:21.785Z,11.35
2022-10-08T03:23:24.412Z,10.40
2022-10-08T03:24:26.771Z,10.65
2022-10-08T03:25:29.018Z,10.32
2022-10-08T03:26:31.526Z,10.95
2022-10-08T03:27:35.303Z,10.60
2022-10-08T03:28:37.829Z,10.73
2022-10-08T03:29:40.248Z,10.00
2022-10-08T03:30:42.482Z,10.52
2022-10-08T03:31:47.130Z,10.13
2022-10-08T03:32:49.679Z,10.32
2022-10-08T03:33:53.808Z,10.82
2022-10-08T03:34:56.277Z,10.65
2022-10-08T03:35:59.317Z,9.82
2022-10-08T03:37:01.560Z,10.30
2022-10-08T03:38:03.816Z,10.40
2022-10-08T03:39:06.065Z,10.70
2022-10-08T03:40:09.541Z,9.70
2022-10-08T03:41:11.955Z,10.57
2022-10-08T03:42:14.132Z,9.77
2022-10-08T03:43:16.298Z,9.65
2022-10-08T03:44:18.676Z,10.20
2022-10-08T03:45:20.968Z,10.20
2022-10-08T03:46:23.482Z,10.43
2022-10-08T03:47:25.923Z,10.07
2022-10-08T03:48:28.793Z,10.52
2022-10-08T03:49:30.990Z,9.40
2022-10-08T03:50:33.306Z,10.35
2022-10-08T03:51:35.658Z,9.65
2022-10-08T03:52:38.261Z,10.27
2022-10-08T03:53:43.018Z,9.93
2022-10-08T03:54:45.191Z,10.50
2022-10-08T03:55:47.623Z,10.93
2022-10-08T03:56:50.004Z,10.02
2022-10-08T03:57:52.983Z,10.93
2022-10-08T03:58:58.528Z,9.95
2022-10-08T04:00:02.144Z,9.88
2022-10-08T04:01:14.462Z,9.57
2022-10-08T04:02:16.821Z,10.00
2022-10-08T04:03:19.049Z,9.45
2022-10-08T04:04:25.391Z,9.93
2022-10-08T04:05:28.100Z,10.80
2022-10-08T04:06:30.654Z,9.98
2022-10-08T04:07:32.906Z,9.75
2022-10-08T04:08:35.737Z,9.63
2022-10-08T04:09:38.112Z,10.57
2022-10-08T04:10:40.581Z,9.43
2022-10-08T04:11:42.777Z,10.38
2022-10-08T04:12:45.269Z,10.50
2022-10-08T04:13:47.875Z,10.63
2022-10-08T04:14:50.240Z,10.30
2022-10-08T04:15:52.630Z,9.45
2022-10-08T04:16:55.575Z,9.88
2022-10-08T04:17:57.736Z,10.52
2022-10-08T04:18:59.907Z,9.95
2022-10-08T04:20:02.635Z,9.43
2022-10-08T04:21:07.283Z,10.10
2022-10-08T04:22:09.613Z,10.27
2022-10-08T04:23:11.960Z,10.13
2022-10-08T04:24:14.113Z,10.13
2022-10-08T04:25:16.424Z,10.27
2022-10-08T04:26:18.888Z,10.32
2022-10-08T04:27:21.211Z,9.50
2022-10-08T04:28:24.327Z,10.27
2022-10-08T04:29:26.585Z,9.00
2022-10-08T04:30:30.150Z,9.80
2022-10-08T04:31:32.530Z,9.98
2022-10-08T04:32:35.036Z,9.80
2022-10-08T04:33:37.573Z,10.07
2022-10-08T04:34:39.750Z,10.27
2022-10-08T04:35:42.051Z,10.40
2022-10-08T04:36:44.362Z,9.23
2022-10-08T04:37:46.719Z,9.35
2022-10-08T04:38:49.366Z,9.73
2022-10-08T04:39:51.674Z,9.60
2022-10-08T04:41:08.760Z,9.63
2022-10-08T04:42:11.073Z,8.88
2022-10-08T04:43:13.822Z,9.32
2022-10-08T04:44:16.002Z,9.63
2022-10-08T04:45:18.436Z,8.50
2022-10-08T04:46:22.136Z,10.20
2022-10-08T04:47:24.710Z,9.48
2022-10-08T04:48:27.363Z,9.52
2022-10-08T04:49:30.013Z,9.00
2022-10-08T04:50:32.236Z,8.75
2022-10-08T04:51:34.403Z,10.10
2022-10-08T04:52:36.627Z,9.13
2022-10-08T04:53:39.201Z,9.05
2022-10-08T04:54:41.645Z,9.00
2022-10-08T04:55:43.799Z,9.30
2022-10-08T04:56:46.082Z,8.73
2022-10-08T04:57:48.408Z,10.13
2022-10-08T04:58:50.977Z,8.98
2022-10-08T05:00:16.527Z,9.07
2022-10-08T05:01:18.326Z,8.63
2022-10-08T05:02:20.575Z,9.20
2022-10-08T05:03:22.907Z,8.40
2022-10-08T05:04:25.367Z,8.85
2022-10-08T05:05:27.779Z,9.23
2022-10-08T05:06:31.696Z,8.98
2022-10-08T05:07:33.887Z,9.35
2022-10-08T05:08:36.619Z,9.85
2022-10-08T05:09:38.781Z,9.90
2022-10-08T05:10:49.153Z,8.60
2022-10-08T05:11:51.631Z,8.77
2022-10-08T05:12:54.890Z,8.52
2022-10-08T05:13:58.512Z,8.60
2022-10-08T05:15:00.983Z,9.27
2022-10-08T05:16:10.708Z,9.18
2022-10-08T05:17:12.924Z,8.38
2022-10-08T05:18:15.114Z,8.60
2022-10-08T05:19:17.309Z,9.07
2022-10-08T05:20:19.709Z,9.32
2022-10-08T05:21:25.528Z,8.85
2022-10-08T05:22:27.856Z,8.63
2022-10-08T05:23:30.344Z,8.77
2022-10-08T05:24:32.559Z,9.10
2022-10-08T05:25:35.718Z,9.45
2022-10-08T05:28:03.652Z,9.07
2022-10-08T05:29:06.674Z,8.10
2022-10-08T05:30:09.472Z,8.95
2022-10-08T05:31:11.902Z,7.75
2022-10-08T05:32:14.166Z,8.75
2022-10-08T05:33:16.317Z,9.40
2022-10-08T05:34:18.683Z,9.20
2022-10-08T05:35:21.155Z,8.70
2022-10-08T05:36:28.858Z,8.30
2022-10-08T05:37:31.401Z,9.15
2022-10-08T05:38:35.521Z,8.30
2022-10-08T05:39:37.877Z,8.60
2022-10-08T05:40:40.031Z,8.05
2022-10-08T05:41:42.525Z,8.13
2022-10-08T05:42:45.290Z,8.45
2022-10-08T05:43:48.797Z,8.52
2022-10-08T05:44:50.958Z,8.38
2022-10-08T05:45:53.279Z,8.80
2022-10-08T05:46:55.618Z,8.02
2022-10-08T05:47:58.041Z,8.77
2022-10-08T05:49:02.494Z,8.38
2022-10-08T05:50:05.325Z,9.05
2022-10-08T05:51:13.216Z,8.63
2022-10-08T05:52:15.737Z,8.30
2022-10-08T05:53:17.930Z,8.35
2022-10-08T05:54:20.323Z,7.88
2022-10-08T05:55:22.759Z,7.68
2022-10-08T05:56:26.541Z,8.25
2022-10-08T05:57:28.865Z,8.25
2022-10-08T05:58:32.259Z,8.75
2022-10-08T05:59:34.588Z,9.50
2022-10-08T06:00:36.914Z,8.57
2022-10-08T06:01:39.079Z,8.43
2022-10-08T06:02:41.439Z,9.02
2022-10-08T06:03:47.841Z,8.65
2022-10-08T06:04:50.381Z,7.88
2022-10-08T06:05:52.781Z,8.30
2022-10-08T06:06:54.953Z,8.68
2022-10-08T06:07:59.828Z,7.78
2022-10-08T06:09:02.031Z,7.72
2022-10-08T06:10:04.644Z,8.15
2022-10-08T06:11:06.946Z,8.40
2022-10-08T06:12:10.001Z,8.25
2022-10-08T06:13:12.194Z,7.65
2022-10-08T06:14:17.116Z,7.60
2022-10-08T06:15:19.312Z,8.07
2022-10-08T06:16:22.116Z,7.65
2022-10-08T06:17:24.536Z,7.68
2022-10-08T06:18:28.618Z,7.43
2022-10-08T06:19:31.089Z,7.63
2022-10-08T06:20:36.926Z,7.30
2022-10-08T06:21:39.392Z,8.20
2022-10-08T06:22:41.564Z,7.88
2022-10-08T06:23:49.943Z,7.28
2022-10-08T06:24:52.123Z,7.80
2022-10-08T06:25:54.539Z,7.60
2022-10-08T06:26:56.690Z,8.60
2022-10-08T06:27:59.026Z,7.97
2022-10-08T06:29:01.261Z,8.23
2022-10-08T06:30:03.715Z,7.45
2022-10-08T06:31:07.780Z,8.68
2022-10-08T06:32:11.379Z,7.93
2022-10-08T06:33:16.434Z,8.85
2022-10-08T06:34:18.708Z,7.60
2022-10-08T06:35:20.846Z,8.32
2022-10-08T06:36:26.027Z,7.53
2022-10-08T06:37:28.370Z,8.65
2022-10-08T06:38:30.904Z,8.18
2022-10-08T06:39:33.184Z,8.02
2022-10-08T06:40:41.694Z,8.45
2022-10-08T06:41:44.293Z,7.97
2022-10-08T06:42:46.913Z,7.85
2022-10-08T06:43:49.881Z,8.30
2022-10-08T06:44:52.212Z,7.72
2022-10-08T06:45:55.309Z,7.28
2022-10-08T06:46:57.561Z,7.57
2022-10-08T06:47:59.927Z,6.93
2022-10-08T06:49:03.281Z,7.63
2022-10-08T06:50:06.088Z,8.18
2022-10-08T06:51:14.140Z,7.93
2022-10-08T06:52:16.890Z,8.07
2022-10-08T06:53:19.086Z,8.05
2022-10-08T06:54:21.398Z,7.35
2022-10-08T06:55:23.577Z,7.47
2022-10-08T06:56:26.176Z,7.75
2022-10-08T06:57:28.382Z,7.55
2022-10-08T06:58:31.191Z,7.07
2022-10-08T06:59:34.023Z,8.23
2022-10-08T07:00:36.293Z,8.05
2022-10-08T07:01:39.034Z,8.30
2022-10-08T07:02:41.302Z,8.13
2022-10-08T07:03:44.051Z,8.07
2022-10-08T07:04:46.502Z,8.30
2022-10-08T07:05:48.674Z,7.72
2022-10-08T07:06:50.909Z,7.78
2022-10-08T07:07:53.129Z,7.45
2022-10-08T07:08:58.140Z,7.15
2022-10-08T07:10:00.345Z,7.80
2022-10-08T07:11:04.835Z,7.00
2022-10-08T07:12:07.068Z,7.47
2022-10-08T07:13:09.267Z,7.40
2022-10-08T07:14:11.676Z,7.97
2022-10-08T07:15:14.341Z,7.60
2022-10-08T07:16:21.102Z,6.85
2022-10-08T07:17:26.169Z,7.18
2022-10-08T07:18:28.648Z,6.80
2022-10-08T07:19:30.878Z,7.07
2022-10-08T07:20:33.176Z,6.75
2022-10-08T07:21:35.346Z,7.28
2022-10-08T07:22:37.509Z,6.60
2022-10-08T07:23:40.129Z,6.80
2022-10-08T07:24:42.332Z,7.00
2022-10-08T07:25:44.558Z,6.45
2022-10-08T07:26:46.772Z,6.90
2022-10-08T07:27:48.939Z,6.43
2022-10-08T07:28:56.762Z,7.20
2022-10-08T07:29:59.008Z,7.43
2022-10-08T07:31:13.607Z,6.55
2022-10-08T07:32:15.805Z,6.93
2022-10-08T07:33:18.085Z,7.13
2022-10-08T07:34:20.383Z,7.13
2022-10-08T07:35:22.561Z,7.63
2022-10-08T07:36:26.021Z,6.55
2022-10-08T07:37:28.321Z,7.63
2022-10-08T07:38:30.985Z,6.70
2022-10-08T07:39:33.143Z,7.63
2022-10-08T07:40:35.920Z,6.72
2022-10-08T07:41:38.251Z,6.97
2022-10-08T07:42:40.490Z,7.20
2022-10-08T07:43:43.293Z,7.13
2022-10-08T07:44:45.505Z,7.57
2022-10-08T07:45:47.851Z,7.22
2022-10-08T07:46:53.316Z,7.35
2022-10-08T07:47:55.470Z,7.30
2022-10-08T07:49:01.765Z,7.65
2022-10-08T07:50:04.489Z,7.43
2022-10-08T07:51:12.008Z,8.23
2022-10-08T07:52:14.256Z,7.55
2022-10-08T07:53:16.954Z,7.18
2022-10-08T07:54:20.127Z,6.95
2022-10-08T07:55:22.307Z,6.57
2022-10-08T07:56:24.995Z,7.53
2022-10-08T07:57:27.678Z,8.30
2022-10-08T07:58:29.960Z,7.35
2022-10-08T07:59:32.773Z,7.93
2022-10-08T08:00:35.014Z,8.02
2022-10-08T08:01:37.417Z,7.90
2022-10-08T08:02:39.564Z,8.10
2022-10-08T08:03:42.437Z,7.57
2022-10-08T08:04:44.686Z,7.57
2022-10-08T08:05:46.986Z,7.20
2022-10-08T08:06:49.244Z,7.40
2022-10-08T08:07:53.393Z,6.97
2022-10-08T08:08:55.765Z,7.28
2022-10-08T08:09:58.137Z,8.43
2022-10-08T08:11:01.865Z,7.57
2022-10-08T08:12:04.054Z,7.68
2022-10-08T08:13:06.908Z,7.20
2022-10-08T08:14:09.842Z,7.28
2022-10-08T08:15:12.504Z,8.40
2022-10-08T08:16:20.387Z,7.78
2022-10-08T08:17:22.689Z,7.22
2022-10-08T08:18:28.778Z,7.70
2022-10-08T08:19:30.933Z,7.35
2022-10-08T08:20:33.250Z,7.50
2022-10-08T08:21:38.329Z,7.13
2022-10-08T08:22:40.483Z,7.40
2022-10-08T08:23:45.385Z,6.78
2022-10-08T08:24:47.576Z,6.93
2022-10-08T08:25:49.898Z,6.80
2022-10-08T08:26:55.525Z,7.40
2022-10-08T08:27:59.854Z,7.25
2022-10-08T08:29:05.677Z,7.00
2022-10-08T08:30:08.465Z,6.85
2022-10-08T08:31:12.223Z,6.93
2022-10-08T08:32:15.461Z,7.15
2022-10-08T08:33:17.779Z,6.88
2022-10-08T08:34:22.058Z,6.47
2022-10-08T08:35:24.226Z,7.18
2022-10-08T08:36:32.950Z,7.13
2022-10-08T08:37:36.647Z,7.13
2022-10-08T08:38:39.587Z,6.40
2022-10-08T08:39:41.780Z,6.88
2022-10-08T08:40:43.937Z,6.60
2022-10-08T08:42:04.403Z,6.65
2022-10-08T08:43:06.991Z,6.38
2022-10-08T08:44:10.739Z,6.43
2022-10-08T08:45:45.964Z,5.90
2022-10-08T08:47:18.551Z,6.20
2022-10-08T08:48:28.962Z,6.45
2022-10-08T08:49:49.701Z,6.45
2022-10-08T08:50:56.918Z,6.20
2022-10-08T08:52:02.512Z,5.32
2022-10-08T08:53:05.703Z,5.63
2022-10-08T08:54:07.826Z,6.07
2022-10-08T08:55:28.887Z,6.15
2022-10-08T08:56:32.929Z,6.00
2022-10-08T08:58:10.768Z,6.38
2022-10-08T08:59:24.863Z,6.00
2022-10-08T09:00:36.058Z,5.55
2022-10-08T09:01:45.319Z,5.82
2022-10-08T09:02:57.977Z,6.38
2022-10-08T09:04:09.670Z,6.00
2022-10-08T09:05:16.052Z,6.30
2022-10-08T09:06:22.739Z,5.63
2022-10-08T09:07:33.060Z,6.18
2022-10-08T09:08:40.577Z,6.88
2022-10-08T09:09:50.336Z,5.40
2022-10-08T09:11:02.740Z,5.72
2022-10-08T09:12:31.880Z,6.45
2022-10-08T09:13:52.242Z,5.70
2022-10-08T09:14:57.782Z,5.32
2022-10-08T09:16:00.304Z,5.43
2022-10-08T09:17:16.142Z,5.38
2022-10-08T09:18:18.458Z,5.13
2022-10-08T09:19:21.240Z,5.43
2022-10-08T09:20:25.525Z,6.20
2022-10-08T09:21:31.637Z,5.25
2022-10-08T09:22:39.335Z,5.57
2022-10-08T09:23:42.172Z,5.90
2022-10-08T09:24:44.356Z,5.78
2022-10-08T09:26:19.662Z,6.30
2022-10-08T09:27:21.994Z,6.70
2022-10-08T09:28:42.247Z,6.47
2022-10-08T09:29:44.852Z,6.13
2022-10-08T09:30:48.005Z,6.22
2022-10-08T09:31:50.333Z,5.88
2022-10-08T09:32:59.794Z,6.50
2022-10-08T09:34:04.648Z,5.70
2022-10-08T09:35:10.241Z,5.60
2022-10-08T09:36:12.660Z,6.05
2022-10-08T09:37:24.460Z,5.32
2022-10-08T09:38:35.913Z,5.32
2022-10-08T09:39:38.386Z,6.30
2022-10-08T09:40:40.706Z,5.80
2022-10-08T09:41:45.273Z,5.68
2022-10-08T09:43:09.141Z,5.22
2022-10-08T09:44:23.161Z,5.68
2022-10-08T09:45:40.478Z,5.70
2022-10-08T09:46:43.673Z,5.38
2022-10-08T09:47:45.827Z,5.70
2022-10-08T09:48:47.972Z,5.85
2022-10-08T09:50:21.442Z,5.53
2022-10-08T09:51:24.216Z,5.30
2022-10-08T09:52:27.980Z,4.80
2022-10-08T09:53:43.524Z,5.47
2022-10-08T09:54:50.274Z,5.30
2022-10-08T09:55:58.995Z,5.45
2022-10-08T09:57:01.822Z,5.90
2022-10-08T09:58:05.410Z,6.22
2022-10-08T09:59:18.388Z,5.32
2022-10-08T10:00:26.202Z,5.82
2022-10-08T10:01:31.325Z,5.18
2022-10-08T10:02:36.497Z,4.50
2022-10-08T10:03:40.683Z,4.50
2022-10-08T10:04:45.247Z,5.07
2022-10-08T10:05:52.576Z,5.13
2022-10-08T10:06:55.674Z,4.75
2022-10-08T10:07:58.106Z,4.90
2022-10-08T10:09:00.222Z,4.50
2022-10-08T10:10:03.790Z,5.25
2022-10-08T10:11:05.936Z,3.88
2022-10-08T10:12:22.157Z,4.60
2022-10-08T10:13:37.851Z,5.03
2022-10-08T10:14:45.009Z,5.25
2022-10-08T10:15:53.807Z,5.25
2022-10-08T10:17:03.888Z,4.90
2022-10-08T10:18:31.943Z,4.50
2022-10-08T10:19:43.059Z,4.93
2022-10-08T10:20:53.887Z,4.78
2022-10-08T10:22:27.609Z,4.65
2022-10-08T10:23:41.056Z,4.20
2022-10-08T10:25:05.835Z,4.90
2022-10-08T10:26:27.358Z,4.68
2022-10-08T10:27:41.033Z,4.57
2022-10-08T10:28:48.434Z,5.05
2022-10-08T10:30:03.709Z,5.18
2022-10-08T10:31:21.160Z,4.82
2022-10-08T10:32:33.737Z,4.70
2022-10-08T10:34:21.286Z,4.82
2022-10-08T10:35:29.347Z,4.40
2022-10-08T10:36:38.140Z,4.45
2022-10-08T10:37:47.576Z,5.00
2022-10-08T10:39:03.409Z,4.78
2022-10-08T10:40:41.939Z,4.40
2022-10-08T10:41:56.058Z,4.90
2022-10-08T10:43:06.797Z,4.55
2022-10-08T10:45:44.216Z,4.78
2022-10-08T10:46:51.636Z,4.07
2022-10-08T10:47:54.559Z,3.70
2022-10-08T10:48:57.383Z,3.83
2022-10-08T10:50:03.224Z,4.28
2022-10-08T10:51:14.873Z,5.18
2022-10-08T10:52:44.976Z,3.95
2022-10-08T10:53:54.678Z,3.83
2022-10-08T10:55:18.829Z,3.35
2022-10-08T10:56:22.721Z,3.72
2022-10-08T10:57:48.894Z,3.03
2022-10-08T10:59:22.917Z,2.92
2022-10-08T11:00:41.057Z,3.50
2022-10-08T11:01:52.035Z,3.45
2022-10-08T11:03:07.003Z,2.80
2022-10-08T11:04:47.564Z,2.63
2022-10-08T11:06:17.421Z,2.70
2022-10-08T11:07:42.721Z,2.35
2022-10-08T11:08:59.549Z,2.65
2022-10-08T11:10:16.760Z,2.22
2022-10-08T11:11:32.894Z,2.22
2022-10-08T11:12:51.729Z,2.90
2022-10-08T11:14:15.631Z,2.45
2022-10-08T11:15:29.961Z,2.22
2022-10-08T11:17:07.686Z,2.70
2022-10-08T11:18:50.519Z,2.17
2022-10-08T11:19:58.706Z,2.60
2022-10-08T11:21:12.991Z,2.28
2022-10-08T11:22:23.745Z,3.00
2022-10-08T11:24:05.285Z,2.20
2022-10-08T11:25:19.838Z,2.67
2022-10-08T11:26:31.075Z,2.28
2022-10-08T11:27:50.698Z,2.45
2022-10-08T11:29:17.468Z,1.90
2022-10-08T11:30:36.458Z,2.38
2022-10-08T11:31:42.676Z,2.35
2022-10-08T11:32:51.592Z,1.95
2022-10-08T11:33:56.422Z,2.30
2022-10-08T11:35:20.024Z,2.13
2022-10-08T11:36:35.508Z,2.15
2022-10-08T11:37:59.127Z,2.13
2022-10-08T11:39:52.802Z,2.45
2022-10-08T11:41:17.814Z,2.63
2022-10-08T11:42:31.183Z,2.60
2022-10-08T11:43:51.147Z,2.17
2022-10-08T11:44:53.502Z,3.30
2022-10-08T11:46:31.708Z,2.05
2022-10-08T11:47:47.237Z,2.05
2022-10-08T11:48:50.568Z,2.05
2022-10-08T11:49:55.508Z,2.35
2022-10-08T11:51:19.312Z,2.63
2022-10-08T11:52:21.649Z,2.28
2022-10-08T11:53:23.808Z,2.05
2022-10-08T11:54:37.200Z,2.10
2022-10-08T11:55:47.663Z,2.17
2022-10-08T11:57:10.438Z,2.80
2022-10-08T11:58:23.658Z,2.03
2022-10-08T11:59:36.455Z,2.75
2022-10-08T12:00:41.996Z,2.65
2022-10-08T12:01:56.544Z,2.50
2022-10-08T12:03:00.287Z,2.63
2022-10-08T12:04:11.795Z,2.60
2022-10-08T12:05:39.305Z,2.25
2022-10-08T12:06:41.494Z,2.33
2022-10-08T12:07:51.403Z,2.47
2022-10-08T12:09:06.107Z,2.30
2022-10-08T12:10:24.151Z,2.10
2022-10-08T12:11:32.192Z,2.40
2022-10-08T12:12:50.075Z,2.47
2022-10-08T12:14:10.860Z,2.65
2022-10-08T12:15:25.040Z,3.10
2022-10-08T12:16:47.071Z,2.75
2022-10-08T12:17:55.085Z,2.33
2022-10-08T12:18:58.098Z,2.53
2022-10-08T12:20:03.050Z,2.30
2022-10-08T12:21:17.383Z,2.40
2022-10-08T12:22:25.334Z,2.10
2022-10-08T12:23:32.040Z,2.03
2022-10-08T12:24:37.200Z,2.33
2022-10-08T12:26:08.869Z,2.50
2022-10-08T12:27:17.170Z,2.20
2022-10-08T12:28:19.432Z,3.15
2022-10-08T12:29:47.886Z,2.53
2022-10-08T12:30:52.527Z,1.88
2022-10-08T12:32:01.934Z,2.30
2022-10-08T12:33:04.243Z,1.70
2022-10-08T12:34:12.377Z,1.70
2022-10-08T12:35:37.287Z,2.78
2022-10-08T12:36:48.342Z,2.15
2022-10-08T12:37:50.712Z,1.73
2022-10-08T12:39:06.771Z,2.20
2022-10-08T12:40:35.159Z,2.25
2022-10-08T12:42:03.201Z,2.42
2022-10-08T12:43:24.554Z,2.25
2022-10-08T12:44:34.208Z,2.00
2022-10-08T12:45:47.875Z,2.55
2022-10-08T12:46:56.001Z,2.15
2022-10-08T12:48:04.185Z,1.90
2022-10-08T12:49:34.248Z,2.45
2022-10-08T12:50:42.763Z,1.88
2022-10-08T12:52:01.080Z,2.30
2022-10-08T12:53:05.230Z,2.47
2022-10-08T12:54:28.775Z,3.40
2022-10-08T12:55:38.182Z,4.30
2022-10-08T12:56:40.589Z,2.15
2022-10-08T12:57:43.676Z,1.80
2022-10-08T12:58:47.969Z,1.75
2022-10-08T12:59:51.005Z,2.10
2022-10-08T13:00:56.922Z,2.20
2022-10-08T13:01:59.236Z,2.20
2022-10-08T13:03:04.915Z,2.30
2022-10-08T13:04:17.802Z,2.10
2022-10-08T13:05:24.263Z,1.77
2022-10-08T13:06:31.750Z,2.10
2022-10-08T13:07:35.930Z,2.47
2022-10-08T13:08:39.836Z,1.90
2022-10-08T13:09:44.675Z,2.25
2022-10-08T13:10:47.177Z,2.47
2022-10-08T13:11:54.847Z,2.20
2022-10-08T13:13:07.045Z,2.50
2022-10-08T13:15:26.025Z,2.08
2022-10-08T13:16:44.719Z,2.00
2022-10-08T13:17:47.090Z,2.80
2022-10-08T13:18:59.591Z,3.08
2022-10-08T13:20:18.145Z,2.42
2022-10-08T13:21:35.279Z,2.38
2022-10-08T13:22:37.493Z,2.65
2022-10-08T13:23:39.589Z,2.35
2022-10-08T13:24:43.789Z,2.28
2022-10-08T13:25:46.115Z,1.83
2022-10-08T13:26:52.220Z,2.90
2022-10-08T13:28:41.673Z,2.50
2022-10-08T13:29:45.803Z,1.70
2022-10-08T13:30:48.859Z,2.92
2022-10-08T13:31:52.718Z,3.35
2022-10-08T13:33:06.228Z,2.05
2022-10-08T13:34:15.755Z,2.40
2022-10-08T13:35:23.810Z,2.70
2022-10-08T13:36:26.120Z,2.22
2022-10-08T13:37:40.252Z,2.70
2022-10-08T13:38:42.434Z,2.33
2022-10-08T13:39:52.725Z,2.28
2022-10-08T13:41:03.900Z,2.17
2022-10-08T13:42:10.529Z,1.90
2022-10-08T13:43:12.861Z,2.72
2022-10-08T13:44:15.044Z,2.53
2022-10-08T13:45:20.389Z,2.17
2022-10-08T13:46:22.570Z,2.70
2022-10-08T13:47:26.285Z,2.60
2022-10-08T13:48:28.661Z,2.38
2022-10-08T13:49:33.026Z,3.33
2022-10-08T13:50:35.240Z,2.50
2022-10-08T13:51:37.476Z,2.13
2022-10-08T13:52:43.871Z,2.00
2022-10-08T13:53:46.131Z,2.25
2022-10-08T13:54:51.472Z,1.80
2022-10-08T13:55:53.683Z,2.63
2022-10-08T13:56:56.368Z,2.05
2022-10-08T13:58:01.892Z,1.80
2022-10-08T13:59:04.224Z,1.88
2022-10-08T14:00:06.935Z,2.25
2022-10-08T14:01:09.203Z,2.33
2022-10-08T14:02:14.059Z,2.22
2022-10-08T14:03:16.711Z,2.65
2022-10-08T14:04:19.634Z,2.17
2022-10-08T14:05:22.952Z,2.38
2022-10-08T14:06:25.198Z,2.75
2022-10-08T14:07:31.224Z,1.48
2022-10-08T14:08:34.380Z,2.25
2022-10-08T14:09:36.565Z,2.67
2022-10-08T14:10:43.138Z,2.40
2022-10-08T14:11:47.727Z,2.25
2022-10-08T14:12:49.964Z,2.25
2022-10-08T14:13:52.095Z,2.85
2022-10-08T14:14:54.834Z,2.33
2022-10-08T14:15:57.024Z,2.88
2022-10-08T14:16:59.270Z,2.33
2022-10-08T14:18:01.406Z,2.55
2022-10-08T14:19:06.500Z,3.20
2022-10-08T14:20:11.822Z,2.42
2022-10-08T14:21:16.824Z,2.33
2022-10-08T14:22:19.136Z,2.00
2022-10-08T14:23:22.139Z,2.35
2022-10-08T14:24:24.367Z,2.05
2022-10-08T14:25:30.525Z,2.00
2022-10-08T14:26:32.944Z,2.20
2022-10-08T14:27:35.260Z,1.77
2022-10-08T14:28:37.438Z,1.92
2022-10-08T14:29:39.600Z,2.75
2022-10-08T14:30:41.805Z,2.38
2022-10-08T14:31:44.027Z,2.40
2022-10-08T14:32:46.756Z,2.83
2022-10-08T14:33:48.923Z,4.10
2022-10-08T14:34:51.136Z,4.05
2022-10-08T14:35:53.844Z,3.10
2022-10-08T14:36:56.281Z,3.38
2022-10-08T14:37:58.426Z,3.58
2022-10-08T14:39:00.592Z,3.25
2022-10-08T14:40:05.755Z,4.10
2022-10-08T14:41:08.253Z,3.50
2022-10-08T14:42:10.546Z,3.35
2022-10-08T14:43:12.707Z,2.53
2022-10-08T14:44:16.710Z,2.47
2022-10-08T14:45:18.906Z,2.88
2022-10-08T14:46:21.052Z,2.35
2022-10-08T14:47:23.432Z,2.35
2022-10-08T14:48:25.581Z,2.67
2022-10-08T14:49:28.077Z,2.45
2022-10-08T14:50:30.362Z,2.33
2022-10-08T14:51:38.326Z,2.47
2022-10-08T14:52:44.592Z,2.45